Wind From: 11-12-2017 04:25 Until: 16:00 warning for: Wind Level: Orange info button

Power and phone distribution networks may be disrupted for relatively long periods., Roofs and chimneys can be damaged. , Tree branches may break. , Vehicles can be deported. , Traffic may be disrupted, particularly on secondary roads in forest areas. Limit your trips. , Limit your speed in highway driving, especially if you drive a vehicle or hitch sensitive to wind. , Do not go for walks in forests or along the coast., In town, be vigilant against possible falling objects., Do not work on roofs and do not touch any electrical line fallen on the ground., Store or secure sensitive objects to wind or likely to be damaged., Always install power generators outside buildings. 


Meteo18 Weather Cam more information Meteo18 Weather Cam


Thunder radar more information blitzortung!


Rain radar more information rain snow radar


Visit our other weather sites:

Template documentation
and downloads

And another site



Weather Underground History page Text

Daily Summary for September 7, 2016 Units:  Metric    English   Both
« Previous Day
Next Day »
Daily Weekly Monthly Yearly Custom
  High: Low: Average:
Temperature: 27.6 °C 13.2 °C 20.1 °C
Dew Point: 14.2 °C 11.3 °C 12.7 °C
Humidity: 89 % 40 % 65 %
Wind Speed: 20.9 km/h 0.0 km/h 4 km/h
Wind Gust: 24.1 km/h - -
Wind:- - ESE
Pressure: 1020.5 hPa 1011.7 hPa -
Precipitation: 0.0 mm    
Historical Graphs
 
 
Tabular Data for September 7, 2016
Time Temperature Dew Point Pressure Wind Wind Speed Wind Gust Humidity Rainfall Rate (Hourly)
00:02 17.2 °C 14.1 °C 1020.5 hPa North 1.6 km/h 4.8 km/h 82 % 0.0 mm
00:07 17.3 °C 14.2 °C 1020.2 hPa NNE 3.2 km/h 4.8 km/h 82 % 0.0 mm
00:12 17.3 °C 14.2 °C 1020.2 hPa Calm   4.8 km/h 82 % 0.0 mm
00:17 17.3 °C 14.0 °C 1020.2 hPa NNE 1.6 km/h 4.8 km/h 81 % 0.0 mm
00:22 17.3 °C 14.0 °C 1020.2 hPa NNE 1.6 km/h 4.8 km/h 81 % 0.0 mm
00:32 17.3 °C 13.8 °C 1019.9 hPa Calm   4.8 km/h 80 % 0.0 mm
00:42 17.1 °C 13.8 °C 1019.9 hPa NNW 1.6 km/h 4.8 km/h 81 % 0.0 mm
00:52 16.9 °C 13.6 °C 1019.9 hPa NNW 1.6 km/h 4.8 km/h 81 % 0.0 mm
00:57 16.9 °C 13.6 °C 1019.9 hPa NNW 1.6 km/h 4.8 km/h 81 % 0.0 mm
01:02 16.9 °C 13.6 °C 1019.9 hPa NNE 3.2 km/h 3.2 km/h 81 % 0.0 mm
01:07 16.9 °C 13.4 °C 1019.9 hPa NNW 3.2 km/h 4.8 km/h 80 % 0.0 mm
01:12 16.9 °C 13.4 °C 1019.9 hPa North 1.6 km/h 4.8 km/h 80 % 0.0 mm
01:17 16.8 °C 13.3 °C 1019.9 hPa North 1.6 km/h 4.8 km/h 80 % 0.0 mm
01:22 16.7 °C 13.4 °C 1019.9 hPa NE 1.6 km/h 4.8 km/h 81 % 0.0 mm
01:32 16.2 °C 13.3 °C 1019.5 hPa North 1.6 km/h 4.8 km/h 83 % 0.0 mm
01:37 16.1 °C 13.4 °C 1019.5 hPa Calm   4.8 km/h 84 % 0.0 mm
01:42 16.1 °C 13.4 °C 1019.5 hPa Calm   3.2 km/h 84 % 0.0 mm
01:47 16.1 °C 13.2 °C 1019.5 hPa NNE 1.6 km/h 3.2 km/h 83 % 0.0 mm
01:52 16.2 °C 13.3 °C 1019.5 hPa NNE 1.6 km/h 3.2 km/h 83 % 0.0 mm
01:57 16.3 °C 13.0 °C 1019.5 hPa NNE 1.6 km/h 4.8 km/h 81 % 0.0 mm
02:02 16.2 °C 13.1 °C 1019.2 hPa NE 6.4 km/h 6.4 km/h 82 % 0.0 mm
02:07 16.4 °C 13.1 °C 1019.2 hPa NNE 4.8 km/h 8.0 km/h 81 % 0.0 mm
02:12 16.4 °C 12.9 °C 1019.2 hPa NE 3.2 km/h 8.0 km/h 80 % 0.0 mm
02:17 16.7 °C 13.2 °C 1019.2 hPa NE 6.4 km/h 8.0 km/h 80 % 0.0 mm
02:22 17.1 °C 13.2 °C 1019.2 hPa NE 8.0 km/h 9.7 km/h 78 % 0.0 mm
02:27 17.2 °C 13.3 °C 1019.2 hPa NE 8.0 km/h 11.3 km/h 78 % 0.0 mm
02:37 17.2 °C 13.1 °C 1019.2 hPa NNE 4.8 km/h 11.3 km/h 77 % 0.0 mm
02:42 16.9 °C 12.8 °C 1018.8 hPa ENE 1.6 km/h 11.3 km/h 77 % 0.0 mm
02:47 16.5 °C 12.8 °C 1018.8 hPa NNE 6.4 km/h 11.3 km/h 79 % 0.0 mm
02:52 16.1 °C 12.8 °C 1018.8 hPa NNE 4.8 km/h 9.7 km/h 81 % 0.0 mm
02:57 15.8 °C 12.5 °C 1018.8 hPa North 4.8 km/h 8.0 km/h 81 % 0.0 mm
03:02 15.7 °C 12.6 °C 1018.8 hPa NE 8.0 km/h 8.0 km/h 82 % 0.0 mm
03:07 16.0 °C 12.7 °C 1019.2 hPa NNE 4.8 km/h 12.9 km/h 81 % 0.0 mm
03:12 15.8 °C 12.5 °C 1018.8 hPa North 4.8 km/h 12.9 km/h 81 % 0.0 mm
03:17 15.6 °C 12.5 °C 1018.8 hPa Calm   11.3 km/h 82 % 0.0 mm
03:27 15.3 °C 12.4 °C 1018.8 hPa NNE 1.6 km/h 6.4 km/h 83 % 0.0 mm
03:32 15.2 °C 12.3 °C 1018.8 hPa Calm   4.8 km/h 83 % 0.0 mm
03:37 15.2 °C 12.3 °C 1018.8 hPa Calm   4.8 km/h 83 % 0.0 mm
03:42 15.1 °C 12.2 °C 1018.8 hPa Calm   4.8 km/h 83 % 0.0 mm
03:47 15.0 °C 12.1 °C 1018.8 hPa Calm   4.8 km/h 83 % 0.0 mm
03:52 14.9 °C 12.2 °C 1018.8 hPa Calm   4.8 km/h 84 % 0.0 mm
03:57 14.8 °C 12.1 °C 1018.8 hPa Calm   3.2 km/h 84 % 0.0 mm
04:02 14.7 °C 12.2 °C 1018.5 hPa Calm   3.2 km/h 85 % 0.0 mm
04:07 14.6 °C 12.1 °C 1018.8 hPa Calm     85 % 0.0 mm
04:12 14.5 °C 12.0 °C 1018.8 hPa NE 1.6 km/h 1.6 km/h 85 % 0.0 mm
04:17 14.4 °C 11.9 °C 1018.5 hPa Calm   3.2 km/h 85 % 0.0 mm
04:22 14.3 °C 12.0 °C 1018.5 hPa North 3.2 km/h 3.2 km/h 86 % 0.0 mm
04:32 14.1 °C 11.8 °C 1018.5 hPa Calm   3.2 km/h 86 % 0.0 mm
04:37 14.1 °C 12.0 °C 1018.5 hPa WNW 1.6 km/h 3.2 km/h 87 % 0.0 mm
04:42 14.1 °C 11.8 °C 1018.5 hPa WNW 1.6 km/h 3.2 km/h 86 % 0.0 mm
04:47 13.8 °C 11.5 °C 1018.5 hPa WNW 1.6 km/h 3.2 km/h 86 % 0.0 mm
04:52 13.8 °C 12.0 °C 1018.5 hPa WNW 1.6 km/h 4.8 km/h 89 % 0.0 mm
04:57 13.9 °C 11.9 °C 1018.5 hPa WNW 4.8 km/h 4.8 km/h 88 % 0.0 mm
05:02 13.9 °C 11.9 °C 1018.2 hPa NW 1.6 km/h 4.8 km/h 88 % 0.0 mm
05:07 14.0 °C 11.9 °C 1018.2 hPa NW 1.6 km/h 8.0 km/h 87 % 0.0 mm
05:12 14.0 °C 11.9 °C 1018.2 hPa NW 1.6 km/h 8.0 km/h 87 % 0.0 mm
05:17 13.9 °C 11.8 °C 1018.2 hPa WNW 1.6 km/h 8.0 km/h 87 % 0.0 mm
05:22 13.7 °C 11.6 °C 1018.2 hPa NW 1.6 km/h 4.8 km/h 87 % 0.0 mm
05:32 13.8 °C 11.8 °C 1018.2 hPa Calm   4.8 km/h 88 % 0.0 mm
05:37 13.8 °C 11.8 °C 1017.8 hPa Calm   4.8 km/h 88 % 0.0 mm
05:47 13.8 °C 11.8 °C 1017.8 hPa NW 1.6 km/h 4.8 km/h 88 % 0.0 mm
05:52 13.8 °C 11.8 °C 1017.8 hPa Calm   4.8 km/h 88 % 0.0 mm
05:57 13.8 °C 11.8 °C 1017.8 hPa NNW 1.6 km/h 4.8 km/h 88 % 0.0 mm
06:02 13.9 °C 11.8 °C 1017.8 hPa NW 1.6 km/h 4.8 km/h 87 % 0.0 mm
06:12 14.0 °C 11.9 °C 1017.8 hPa NW 3.2 km/h 6.4 km/h 87 % 0.0 mm
06:17 14.0 °C 11.9 °C 1017.8 hPa NNW 1.6 km/h 6.4 km/h 87 % 0.0 mm
06:22 14.0 °C 11.7 °C 1017.8 hPa NNW 1.6 km/h 6.4 km/h 86 % 0.0 mm
06:32 13.9 °C 11.6 °C 1017.8 hPa ENE 3.2 km/h 8.0 km/h 86 % 0.0 mm
06:37 13.7 °C 11.6 °C 1017.8 hPa NE 3.2 km/h 8.0 km/h 87 % 0.0 mm
06:42 13.4 °C 11.5 °C 1017.8 hPa North 4.8 km/h 8.0 km/h 88 % 0.0 mm
06:47 13.2 °C 11.3 °C 1017.8 hPa NNE 3.2 km/h 6.4 km/h 88 % 0.0 mm
06:52 13.2 °C 11.4 °C 1017.8 hPa NNE 4.8 km/h 6.4 km/h 89 % 0.0 mm
06:57 13.3 °C 11.5 °C 1017.8 hPa North 1.6 km/h 8.0 km/h 89 % 0.0 mm
07:02 13.4 °C 11.5 °C 1017.8 hPa NE 1.6 km/h 8.0 km/h 88 % 0.0 mm
07:07 13.4 °C 11.5 °C 1017.8 hPa North 1.6 km/h 8.0 km/h 88 % 0.0 mm
07:12 13.4 °C 11.5 °C 1017.8 hPa NNE 3.2 km/h 8.0 km/h 88 % 0.0 mm
07:17 13.6 °C 11.6 °C 1017.8 hPa NNE 3.2 km/h 8.0 km/h 88 % 0.0 mm
07:22 13.7 °C 11.7 °C 1017.8 hPa NNE 1.6 km/h 8.0 km/h 88 % 0.0 mm
07:27 13.7 °C 11.6 °C 1017.8 hPa NNE 1.6 km/h 6.4 km/h 87 % 0.0 mm
07:32 13.7 °C 11.6 °C 1017.8 hPa NNE 3.2 km/h 6.4 km/h 87 % 0.0 mm
07:37 14.0 °C 11.9 °C 1017.8 hPa NNE 3.2 km/h 9.7 km/h 87 % 0.0 mm
07:42 14.2 °C 11.7 °C 1017.8 hPa Calm   9.7 km/h 85 % 0.0 mm
07:47 14.3 °C 11.8 °C 1017.8 hPa Calm   9.7 km/h 85 % 0.0 mm
07:52 14.4 °C 11.9 °C 1017.8 hPa NNE 1.6 km/h 8.0 km/h 85 % 0.0 mm
07:57 14.6 °C 11.9 °C 1017.8 hPa NNW 4.8 km/h 6.4 km/h 84 % 0.0 mm
08:02 14.8 °C 12.1 °C 1017.8 hPa Calm   4.8 km/h 84 % 0.0 mm
08:07 15.1 °C 12.2 °C 1017.8 hPa Calm   6.4 km/h 83 % 0.0 mm
08:12 15.2 °C 12.3 °C 1017.8 hPa North 1.6 km/h 6.4 km/h 83 % 0.0 mm
08:17 15.4 °C 12.3 °C 1017.8 hPa North 1.6 km/h 6.4 km/h 82 % 0.0 mm
08:22 15.7 °C 12.6 °C 1017.8 hPa North 3.2 km/h 6.4 km/h 82 % 0.0 mm
08:27 15.8 °C 12.5 °C 1017.8 hPa North 1.6 km/h 6.4 km/h 81 % 0.0 mm
08:32 16.0 °C 12.7 °C 1017.8 hPa NNE 1.6 km/h 4.8 km/h 81 % 0.0 mm
08:37 16.2 °C 12.9 °C 1017.8 hPa NNE 1.6 km/h 8.0 km/h 81 % 0.0 mm
08:42 16.3 °C 12.8 °C 1017.8 hPa NNE 8.0 km/h 9.7 km/h 80 % 0.0 mm
08:47 16.5 °C 13.0 °C 1017.8 hPa NNW 8.0 km/h 9.7 km/h 80 % 0.0 mm
08:52 16.7 °C 13.0 °C 1017.5 hPa North 6.4 km/h 9.7 km/h 79 % 0.0 mm
09:02 16.9 °C 12.8 °C 1017.8 hPa NNE 9.7 km/h 11.3 km/h 77 % 0.0 mm
09:07 17.1 °C 12.8 °C 1017.8 hPa NNE 6.4 km/h 17.7 km/h 76 % 0.0 mm
09:12 17.2 °C 12.9 °C 1017.5 hPa NE 9.7 km/h 17.7 km/h 76 % 0.0 mm
09:17 17.3 °C 12.8 °C 1017.5 hPa NE 11.3 km/h 17.7 km/h 75 % 0.0 mm
09:22 17.4 °C 12.9 °C 1017.5 hPa NNE 11.3 km/h 17.7 km/h 75 % 0.0 mm
09:27 17.5 °C 13.0 °C 1017.5 hPa NE 9.7 km/h 19.3 km/h 75 % 0.0 mm
09:32 17.6 °C 13.1 °C 1017.5 hPa NE 6.4 km/h 19.3 km/h 75 % 0.0 mm
09:37 17.7 °C 13.0 °C 1017.5 hPa NE 11.3 km/h 17.7 km/h 74 % 0.0 mm
09:47 17.7 °C 13.2 °C 1017.5 hPa ENE 11.3 km/h 17.7 km/h 75 % 0.0 mm
09:52 17.9 °C 13.2 °C 1017.5 hPa ENE 8.0 km/h 17.7 km/h 74 % 0.0 mm
10:02 18.3 °C 13.4 °C 1017.5 hPa NE 9.7 km/h 16.1 km/h 73 % 0.0 mm
10:12 18.7 °C 13.5 °C 1017.2 hPa NE 11.3 km/h 16.1 km/h 72 % 0.0 mm
10:17 18.8 °C 13.2 °C 1017.2 hPa ENE 8.0 km/h 16.1 km/h 70 % 0.0 mm
10:22 19.0 °C 13.6 °C 1017.2 hPa ENE 6.4 km/h 17.7 km/h 71 % 0.0 mm
10:27 19.2 °C 13.4 °C 1017.2 hPa NE 11.3 km/h 17.7 km/h 69 % 0.0 mm
10:32 19.5 °C 13.4 °C 1017.2 hPa East 8.0 km/h 17.7 km/h 68 % 0.0 mm
10:37 19.6 °C 13.5 °C 1017.2 hPa NNE 11.3 km/h 17.7 km/h 68 % 0.0 mm
10:42 19.7 °C 13.6 °C 1017.2 hPa NNE 9.7 km/h 16.1 km/h 68 % 0.0 mm
10:47 19.9 °C 13.4 °C 1017.2 hPa NE 6.4 km/h 17.7 km/h 66 % 0.0 mm
10:52 20.0 °C 13.0 °C 1017.2 hPa NE 4.8 km/h 17.7 km/h 64 % 0.0 mm
10:57 20.2 °C 13.6 °C 1016.8 hPa NE 8.0 km/h 17.7 km/h 66 % 0.0 mm
11:02 20.3 °C 13.3 °C 1017.2 hPa ENE 4.8 km/h 16.1 km/h 64 % 0.0 mm
11:07 20.5 °C 13.5 °C 1016.8 hPa ENE 6.4 km/h 16.1 km/h 64 % 0.0 mm
11:12 20.6 °C 13.1 °C 1016.8 hPa East 6.4 km/h 14.5 km/h 62 % 0.0 mm
11:17 20.9 °C 13.1 °C 1016.8 hPa East 4.8 km/h 16.1 km/h 61 % 0.0 mm
11:22 21.1 °C 13.0 °C 1016.8 hPa ENE 3.2 km/h 16.1 km/h 60 % 0.0 mm
11:27 21.3 °C 13.2 °C 1016.8 hPa East 8.0 km/h 11.3 km/h 60 % 0.0 mm
11:32 21.1 °C 12.8 °C 1016.8 hPa ENE 3.2 km/h 12.9 km/h 59 % 0.0 mm
11:37 21.3 °C 13.0 °C 1016.8 hPa ENE 4.8 km/h 12.9 km/h 59 % 0.0 mm
11:42 21.4 °C 13.1 °C 1016.8 hPa ENE 14.5 km/h 14.5 km/h 59 % 0.0 mm
11:47 21.4 °C 12.8 °C 1016.5 hPa East 3.2 km/h 14.5 km/h 58 % 0.0 mm
11:57 21.6 °C 13.0 °C 1016.5 hPa ENE 8.0 km/h 14.5 km/h 58 % 0.0 mm
12:02 21.8 °C 12.9 °C 1016.1 hPa NNE 11.3 km/h 14.5 km/h 57 % 0.0 mm
12:07 22.1 °C 12.9 °C 1016.5 hPa NNE 4.8 km/h 17.7 km/h 56 % 0.0 mm
12:17 22.2 °C 13.0 °C 1016.1 hPa ESE 1.6 km/h 16.1 km/h 56 % 0.0 mm
12:22 22.4 °C 12.9 °C 1016.1 hPa NNE 6.4 km/h 14.5 km/h 55 % 0.0 mm
12:27 22.6 °C 12.5 °C 1015.8 hPa ENE 9.7 km/h 11.3 km/h 53 % 0.0 mm
12:32 22.6 °C 12.8 °C 1016.1 hPa ENE 3.2 km/h 19.3 km/h 54 % 0.0 mm
12:42 23.2 °C 12.8 °C 1015.8 hPa NE 6.4 km/h 16.1 km/h 52 % 0.0 mm
12:47 23.2 °C 12.5 °C 1015.8 hPa East 4.8 km/h 16.1 km/h 51 % 0.0 mm
12:52 23.4 °C 12.4 °C 1015.5 hPa ENE 6.4 km/h 16.1 km/h 50 % 0.0 mm
12:57 23.6 °C 11.9 °C 1015.5 hPa NE 4.8 km/h 17.7 km/h 48 % 0.0 mm
13:02 23.7 °C 11.7 °C 1015.5 hPa East 3.2 km/h 19.3 km/h 47 % 0.0 mm
13:07 23.8 °C 11.8 °C 1015.5 hPa ENE 6.4 km/h 19.3 km/h 47 % 0.0 mm
13:22 24.2 °C 11.8 °C 1015.1 hPa East 4.8 km/h 19.3 km/h 46 % 0.0 mm
13:27 24.3 °C 11.9 °C 1015.1 hPa ENE 11.3 km/h 19.3 km/h 46 % 0.0 mm
13:32 24.6 °C 11.9 °C 1015.1 hPa NE 9.7 km/h 20.9 km/h 45 % 0.0 mm
13:37 24.6 °C 11.9 °C 1015.1 hPa ENE 6.4 km/h 20.9 km/h 45 % 0.0 mm
13:42 24.6 °C 11.9 °C 1015.1 hPa NNE 9.7 km/h 20.9 km/h 45 % 0.0 mm
13:47 24.7 °C 12.3 °C 1015.1 hPa NE 1.6 km/h 20.9 km/h 46 % 0.0 mm
13:52 24.8 °C 11.7 °C 1015.1 hPa SSE 1.6 km/h 19.3 km/h 44 % 0.0 mm
13:57 25.1 °C 12.3 °C 1015.1 hPa NNE 9.7 km/h 19.3 km/h 45 % 0.0 mm
14:02 25.3 °C 11.8 °C 1015.1 hPa ENE 6.4 km/h 17.7 km/h 43 % 0.0 mm
14:07 25.4 °C 12.3 °C 1015.1 hPa NNE 12.9 km/h 17.7 km/h 44 % 0.0 mm
14:12 25.3 °C 12.2 °C 1015.1 hPa NE 6.4 km/h 16.1 km/h 44 % 0.0 mm
14:17 25.3 °C 12.2 °C 1014.8 hPa NE 14.5 km/h 19.3 km/h 44 % 0.0 mm
14:22 25.3 °C 11.8 °C 1014.8 hPa NE 1.6 km/h 19.3 km/h 43 % 0.0 mm
14:27 25.6 °C 12.1 °C 1014.8 hPa ENE 16.1 km/h 19.3 km/h 43 % 0.0 mm
14:32 25.7 °C 12.2 °C 1014.8 hPa ENE 9.7 km/h 19.3 km/h 43 % 0.0 mm
14:37 25.8 °C 11.9 °C 1014.4 hPa East 19.3 km/h 20.9 km/h 42 % 0.0 mm
14:42 25.6 °C 12.1 °C 1014.4 hPa SE 4.8 km/h 22.5 km/h 43 % 0.0 mm
14:47 25.6 °C 12.1 °C 1014.4 hPa NNE 17.7 km/h 22.5 km/h 43 % 0.0 mm
14:52 25.7 °C 12.2 °C 1014.4 hPa ENE 1.6 km/h 22.5 km/h 43 % 0.0 mm
14:57 25.9 °C 12.4 °C 1014.4 hPa ENE 8.0 km/h 19.3 km/h 43 % 0.0 mm
15:02 25.9 °C 12.4 °C 1014.4 hPa North 4.8 km/h 20.9 km/h 43 % 0.0 mm
15:07 25.9 °C 12.0 °C 1014.4 hPa ENE 6.4 km/h 20.9 km/h 42 % 0.0 mm
15:12 25.9 °C 12.4 °C 1014.4 hPa ENE 11.3 km/h 20.9 km/h 43 % 0.0 mm
15:17 26.3 °C 12.7 °C 1014.1 hPa NE 4.8 km/h 16.1 km/h 43 % 0.0 mm
15:22 26.4 °C 12.5 °C 1014.1 hPa NNE 9.7 km/h 16.1 km/h 42 % 0.0 mm
15:27 26.4 °C 12.5 °C 1014.1 hPa NW 4.8 km/h 24.1 km/h 42 % 0.0 mm
15:32 26.3 °C 12.4 °C 1014.4 hPa ENE 8.0 km/h 24.1 km/h 42 % 0.0 mm
15:37 26.1 °C 12.2 °C 1014.4 hPa Calm   24.1 km/h 42 % 0.0 mm
15:42 26.5 °C 12.5 °C 1014.1 hPa Calm   24.1 km/h 42 % 0.0 mm
15:47 27.0 °C 12.6 °C 1014.1 hPa East 8.0 km/h 12.9 km/h 41 % 0.0 mm
15:52 26.9 °C 12.9 °C 1014.1 hPa ENE 8.0 km/h 16.1 km/h 42 % 0.0 mm
15:57 26.7 °C 12.4 °C 1013.8 hPa East 1.6 km/h 16.1 km/h 41 % 0.0 mm
16:02 26.9 °C 12.5 °C 1013.8 hPa ENE 9.7 km/h 16.1 km/h 41 % 0.0 mm
16:07 26.8 °C 12.4 °C 1013.8 hPa ENE 6.4 km/h 12.9 km/h 41 % 0.0 mm
16:12 26.8 °C 12.8 °C 1013.8 hPa ENE 6.4 km/h 12.9 km/h 42 % 0.0 mm
16:27 26.8 °C 12.4 °C 1013.8 hPa NNE 4.8 km/h 14.5 km/h 41 % 0.0 mm
16:32 26.7 °C 12.4 °C 1013.8 hPa ENE 4.8 km/h 16.1 km/h 41 % 0.0 mm
16:37 26.7 °C 12.4 °C 1013.8 hPa ENE 11.3 km/h 16.1 km/h 41 % 0.0 mm
16:42 26.8 °C 12.4 °C 1013.4 hPa ENE 3.2 km/h 16.1 km/h 41 % 0.0 mm
16:47 27.0 °C 13.0 °C 1013.4 hPa SE 1.6 km/h 16.1 km/h 42 % 0.0 mm
16:52 27.4 °C 13.0 °C 1013.4 hPa ENE 1.6 km/h 16.1 km/h 41 % 0.0 mm
16:57 27.3 °C 12.9 °C 1013.4 hPa ENE 3.2 km/h 11.3 km/h 41 % 0.0 mm
17:02 27.4 °C 12.6 °C 1013.4 hPa SE 1.6 km/h 9.7 km/h 40 % 0.0 mm
17:07 27.5 °C 12.7 °C 1013.4 hPa NE 6.4 km/h 9.7 km/h 40 % 0.0 mm
17:12 27.4 °C 12.6 °C 1013.4 hPa ENE 4.8 km/h 12.9 km/h 40 % 0.0 mm
17:17 27.3 °C 12.5 °C 1013.1 hPa ENE 4.8 km/h 12.9 km/h 40 % 0.0 mm
17:22 27.4 °C 13.0 °C 1013.1 hPa NNE 1.6 km/h 11.3 km/h 41 % 0.0 mm
17:27 27.6 °C 12.8 °C 1013.1 hPa NNE 16.1 km/h 16.1 km/h 40 % 0.0 mm
17:32 27.3 °C 12.9 °C 1012.8 hPa North 8.0 km/h 17.7 km/h 41 % 0.0 mm
17:37 27.4 °C 13.0 °C 1012.8 hPa North 3.2 km/h 17.7 km/h 41 % 0.0 mm
17:42 27.4 °C 13.0 °C 1012.8 hPa NNE 9.7 km/h 17.7 km/h 41 % 0.0 mm
17:47 27.3 °C 12.9 °C 1012.8 hPa East 20.9 km/h 20.9 km/h 41 % 0.0 mm
17:52 27.3 °C 12.9 °C 1012.4 hPa ENE 4.8 km/h 20.9 km/h 41 % 0.0 mm
17:57 27.2 °C 12.8 °C 1012.4 hPa ENE 6.4 km/h 20.9 km/h 41 % 0.0 mm
18:02 27.3 °C 13.3 °C 1012.4 hPa NNE 4.8 km/h 20.9 km/h 42 % 0.0 mm
18:07 27.3 °C 12.9 °C 1012.4 hPa NE 11.3 km/h 14.5 km/h 41 % 0.0 mm
18:12 27.3 °C 12.9 °C 1012.4 hPa NE 4.8 km/h 16.1 km/h 41 % 0.0 mm
18:17 27.3 °C 13.3 °C 1012.4 hPa NNE 11.3 km/h 16.1 km/h 42 % 0.0 mm
18:22 27.3 °C 12.9 °C 1012.4 hPa NE 11.3 km/h 16.1 km/h 41 % 0.0 mm
18:32 27.1 °C 13.1 °C 1012.1 hPa ENE 3.2 km/h 17.7 km/h 42 % 0.0 mm
18:47 27.1 °C 13.4 °C 1012.1 hPa East 3.2 km/h 14.5 km/h 43 % 0.0 mm
18:52 27.0 °C 13.4 °C 1012.4 hPa NE 4.8 km/h 14.5 km/h 43 % 0.0 mm
18:57 27.0 °C 13.4 °C 1012.4 hPa East 4.8 km/h 11.3 km/h 43 % 0.0 mm
19:02 27.1 °C 13.1 °C 1012.1 hPa ENE 3.2 km/h 9.7 km/h 42 % 0.0 mm
19:12 26.7 °C 13.1 °C 1012.1 hPa ENE 6.4 km/h 11.3 km/h 43 % 0.0 mm
19:17 26.6 °C 13.0 °C 1012.1 hPa ENE 6.4 km/h 11.3 km/h 43 % 0.0 mm
19:22 26.5 °C 13.3 °C 1012.1 hPa NE 3.2 km/h 11.3 km/h 44 % 0.0 mm
19:27 26.6 °C 13.3 °C 1012.1 hPa ENE 3.2 km/h 11.3 km/h 44 % 0.0 mm
19:32 26.4 °C 13.2 °C 1012.1 hPa ENE 1.6 km/h 9.7 km/h 44 % 0.0 mm
19:37 26.4 °C 13.5 °C 1012.1 hPa East 1.6 km/h 9.7 km/h 45 % 0.0 mm
19:42 26.2 °C 13.3 °C 1012.1 hPa Calm   9.7 km/h 45 % 0.0 mm
19:47 25.9 °C 13.4 °C 1012.1 hPa Calm   9.7 km/h 46 % 0.0 mm
19:52 25.7 °C 13.5 °C 1012.1 hPa Calm   3.2 km/h 47 % 0.0 mm
19:57 25.5 °C 13.4 °C 1012.1 hPa Calm   3.2 km/h 47 % 0.0 mm
20:02 25.3 °C 13.5 °C 1012.1 hPa Calm   1.6 km/h 48 % 0.0 mm
20:07 25.2 °C 13.4 °C 1012.1 hPa Calm   1.6 km/h 48 % 0.0 mm
20:12 24.9 °C 13.5 °C 1012.1 hPa East 1.6 km/h 1.6 km/h 49 % 0.0 mm
20:17 24.3 °C 12.9 °C 1012.1 hPa Calm   1.6 km/h 49 % 0.0 mm
20:22 23.8 °C 13.1 °C 1012.1 hPa Calm   1.6 km/h 51 % 0.0 mm
20:27 23.6 °C 13.2 °C 1012.1 hPa Calm   1.6 km/h 52 % 0.0 mm
20:32 23.3 °C 12.6 °C 1012.1 hPa Calm     51 % 0.0 mm
20:37 22.9 °C 12.8 °C 1012.1 hPa WNW 1.6 km/h   53 % 0.0 mm
20:42 22.5 °C 13.3 °C 1012.1 hPa WNW 1.6 km/h 3.2 km/h 56 % 0.0 mm
20:47 22.3 °C 13.4 °C 1012.4 hPa Calm   3.2 km/h 57 % 0.0 mm
20:52 22.3 °C 13.4 °C 1012.4 hPa Calm   3.2 km/h 57 % 0.0 mm
20:57 22.2 °C 13.5 °C 1012.4 hPa Calm   3.2 km/h 58 % 0.0 mm
21:02 21.9 °C 13.3 °C 1012.4 hPa NW 1.6 km/h 3.2 km/h 58 % 0.0 mm
21:07 21.7 °C 13.3 °C 1012.1 hPa North 3.2 km/h 3.2 km/h 59 % 0.0 mm
21:17 21.5 °C 13.4 °C 1012.4 hPa NNW 1.6 km/h 4.8 km/h 60 % 0.0 mm
21:22 21.3 °C 13.5 °C 1012.4 hPa NNW 1.6 km/h 4.8 km/h 61 % 0.0 mm
21:32 20.9 °C 13.1 °C 1012.4 hPa Calm   3.2 km/h 61 % 0.0 mm
21:37 20.5 °C 13.2 °C 1012.4 hPa Calm   3.2 km/h 63 % 0.0 mm
21:42 20.1 °C 13.1 °C 1012.4 hPa Calm   1.6 km/h 64 % 0.0 mm
21:47 19.8 °C 13.3 °C 1012.4 hPa Calm     66 % 0.0 mm
21:52 19.6 °C 13.3 °C 1012.4 hPa Calm     67 % 0.0 mm
21:57 19.6 °C 13.5 °C 1012.4 hPa Calm     68 % 0.0 mm
22:02 19.4 °C 13.1 °C 1012.4 hPa WNW 3.2 km/h   67 % 0.0 mm
22:07 19.1 °C 13.3 °C 1012.4 hPa WNW 1.6 km/h 3.2 km/h 69 % 0.0 mm
22:12 18.9 °C 13.1 °C 1012.4 hPa WNW 3.2 km/h 3.2 km/h 69 % 0.0 mm
22:17 18.9 °C 13.3 °C 1012.4 hPa WNW 1.6 km/h 3.2 km/h 70 % 0.0 mm
22:22 19.1 °C 13.3 °C 1012.4 hPa Calm   3.2 km/h 69 % 0.0 mm
22:32 18.8 °C 13.0 °C 1012.4 hPa Calm   3.2 km/h 69 % 0.0 mm
22:37 18.6 °C 13.0 °C 1012.4 hPa Calm   1.6 km/h 70 % 0.0 mm
22:42 18.3 °C 13.2 °C 1012.1 hPa Calm     72 % 0.0 mm
22:47 18.1 °C 13.0 °C 1012.1 hPa Calm     72 % 0.0 mm
22:52 18.2 °C 13.1 °C 1012.1 hPa Calm     72 % 0.0 mm
22:57 18.1 °C 12.8 °C 1012.1 hPa Calm     71 % 0.0 mm
23:02 18.1 °C 13.0 °C 1012.1 hPa Calm     72 % 0.0 mm
23:07 17.9 °C 12.8 °C 1011.7 hPa Calm     72 % 0.0 mm
23:12 17.8 °C 12.9 °C 1011.7 hPa Calm     73 % 0.0 mm
23:17 17.6 °C 12.7 °C 1011.7 hPa Calm     73 % 0.0 mm
23:22 17.4 °C 12.9 °C 1011.7 hPa Calm     75 % 0.0 mm
23:32 17.2 °C 12.5 °C 1011.7 hPa WNW 1.6 km/h   74 % 0.0 mm
23:37 17.2 °C 12.9 °C 1011.7 hPa North 1.6 km/h 3.2 km/h 76 % 0.0 mm
23:42 17.3 °C 13.0 °C 1011.7 hPa Calm   3.2 km/h 76 % 0.0 mm
23:47 17.3 °C 12.8 °C 1011.7 hPa Calm   3.2 km/h 75 % 0.0 mm
23:52 17.3 °C 12.8 °C 1011.7 hPa Calm   1.6 km/h 75 % 0.0 mm
23:57 17.1 °C 12.6 °C 1011.7 hPa Calm   1.6 km/h 75 % 0.0 mm
Meteo18
Compliments of Weather Underground - 4 mb

Script developed by  Jim McMurry - jmcmurry@mwt.net Adapted for the template by  Wim van der Kuil - Leuven-Template.eu

You find our weather info also at:

European Weather Network

Weather Underground

Equipment we use:

Weather-station
Davis Vue

Weather-program
Meteohub

Weather-server
Raspberry PI 2 B+

Provider
1 and 1

Davis Vue

Meteohub

Raspberry PI 2 B+

1 and 1